createdAt,value
2019-02-08T00:01:50.246Z,12.83
2019-02-08T00:04:17.088Z,14.80
2019-02-08T00:06:43.911Z,15.65
2019-02-08T00:09:10.767Z,15.47
2019-02-08T00:11:37.614Z,15.77
2019-02-08T00:14:04.450Z,14.57
2019-02-08T00:16:31.304Z,12.30
2019-02-08T00:18:58.166Z,12.40
2019-02-08T00:21:24.994Z,12.20
2019-02-08T00:23:51.817Z,10.63
2019-02-08T00:26:18.678Z,11.40
2019-02-08T00:28:45.523Z,12.00
2019-02-08T00:31:12.363Z,16.57
2019-02-08T00:33:39.198Z,18.73
2019-02-08T00:36:06.050Z,14.50
2019-02-08T00:38:32.870Z,14.10
2019-02-08T00:40:59.719Z,13.67
2019-02-08T00:43:26.556Z,14.70
2019-02-08T00:45:53.440Z,14.17
2019-02-08T00:48:20.286Z,12.07
2019-02-08T00:50:47.145Z,12.13
2019-02-08T00:53:13.978Z,19.00
2019-02-08T00:55:40.851Z,12.00
2019-02-08T00:58:07.686Z,12.90
2019-02-08T01:00:34.541Z,16.03
2019-02-08T01:03:01.383Z,11.63
2019-02-08T01:05:28.277Z,11.33
2019-02-08T01:07:55.110Z,13.57
2019-02-08T01:10:24.754Z,13.63
2019-02-08T01:12:51.630Z,13.57
2019-02-08T01:15:18.817Z,13.60
2019-02-08T01:17:45.644Z,14.93
2019-02-08T01:20:14.332Z,15.65
2019-02-08T01:22:41.162Z,14.03
2019-02-08T01:25:10.375Z,15.50
2019-02-08T01:27:37.213Z,14.80
2019-02-08T01:30:06.098Z,16.60
2019-02-08T01:32:32.943Z,19.35
2019-02-08T01:34:59.782Z,19.82
2019-02-08T01:37:26.623Z,16.63
2019-02-08T01:39:53.442Z,17.45
2019-02-08T01:42:20.298Z,21.33
2019-02-08T01:44:47.137Z,16.70
2019-02-08T01:47:13.994Z,18.10
2019-02-08T01:49:40.851Z,15.43
2019-02-08T01:52:07.778Z,21.05
2019-02-08T01:54:34.631Z,23.67
2019-02-08T01:57:01.486Z,20.20
2019-02-08T01:59:28.310Z,19.35
2019-02-08T02:01:55.153Z,19.87
2019-02-08T02:04:21.995Z,16.75
2019-02-08T02:06:48.845Z,18.30
2019-02-08T02:09:15.681Z,16.83
2019-02-08T02:11:42.526Z,16.07
2019-02-08T02:14:09.558Z,15.87
2019-02-08T02:16:36.424Z,14.27
2019-02-08T02:19:03.272Z,16.10
2019-02-08T02:21:30.118Z,14.57
2019-02-08T02:23:56.949Z,14.40
2019-02-08T02:26:23.798Z,14.33
2019-02-08T02:28:50.631Z,16.30
2019-02-08T02:31:17.478Z,16.07
2019-02-08T02:33:44.310Z,15.53
2019-02-08T02:36:11.153Z,19.07
2019-02-08T02:38:37.990Z,14.67
2019-02-08T02:41:04.854Z,12.30
2019-02-08T02:43:32.582Z,13.30
2019-02-08T02:45:58.538Z,21.20
2019-02-08T02:48:25.395Z,16.60
2019-02-08T02:50:52.246Z,18.67
2019-02-08T02:53:19.083Z,19.20
2019-02-08T02:55:45.937Z,20.63
2019-02-08T02:58:12.766Z,18.20
2019-02-08T03:00:42.459Z,14.60
2019-02-08T03:03:09.813Z,21.63
2019-02-08T03:05:36.657Z,16.97
2019-02-08T03:08:04.419Z,18.52
2019-02-08T03:10:31.250Z,15.80
2019-02-08T03:12:58.103Z,19.77
2019-02-08T03:15:24.929Z,18.45
2019-02-08T03:17:51.782Z,18.40
2019-02-08T03:20:18.622Z,19.27
2019-02-08T03:22:45.469Z,20.80
2019-02-08T03:25:14.665Z,22.13
2019-02-08T03:27:41.502Z,14.10
2019-02-08T03:30:10.679Z,16.50
2019-02-08T03:32:37.531Z,11.73
2019-02-08T03:35:05.680Z,12.73
2019-02-08T03:37:32.530Z,15.83
2019-02-08T03:39:59.385Z,12.70
2019-02-08T03:42:26.243Z,16.60
2019-02-08T03:44:53.083Z,17.83
2019-02-08T03:47:19.950Z,13.78
2019-02-08T03:49:46.790Z,20.05
2019-02-08T03:52:13.618Z,13.13
2019-02-08T03:54:40.442Z,14.93
2019-02-08T03:57:07.301Z,16.23
2019-02-08T03:59:34.130Z,29.37
2019-02-08T04:02:00.986Z,32.03
2019-02-08T04:04:27.844Z,15.07
2019-02-08T04:06:54.714Z,11.87
2019-02-08T04:09:21.549Z,15.10
2019-02-08T04:11:48.407Z,13.30
2019-02-08T04:14:15.262Z,13.40
2019-02-08T04:16:42.126Z,17.10
2019-02-08T04:19:08.962Z,14.80
2019-02-08T04:21:35.807Z,14.70
2019-02-08T04:24:02.629Z,13.83
2019-02-08T04:26:29.486Z,17.33
2019-02-08T04:28:56.318Z,13.50
2019-02-08T04:31:23.187Z,19.77
2019-02-08T04:33:50.004Z,18.00
2019-02-08T04:36:16.829Z,15.67
2019-02-08T04:38:43.686Z,16.70
2019-02-08T04:41:10.614Z,18.73
2019-02-08T04:43:37.466Z,15.70
2019-02-08T04:46:04.300Z,17.90
2019-02-08T04:48:31.155Z,15.33
2019-02-08T04:50:57.992Z,18.10
2019-02-08T04:53:24.838Z,15.10
2019-02-08T04:55:51.776Z,20.00
2019-02-08T04:58:18.622Z,16.27
2019-02-08T05:00:45.469Z,17.93
2019-02-08T05:03:12.374Z,15.37
2019-02-08T05:05:39.175Z,18.90
2019-02-08T05:08:06.122Z,18.07
2019-02-08T05:10:32.965Z,16.43
2019-02-08T05:12:59.825Z,17.03
2019-02-08T05:15:26.666Z,23.43
2019-02-08T05:17:53.657Z,22.93
2019-02-08T05:20:22.085Z,17.50
2019-02-08T05:22:48.945Z,17.33
2019-02-08T05:25:15.809Z,16.55
2019-02-08T05:27:42.653Z,22.63
2019-02-08T05:30:13.015Z,16.43
2019-02-08T05:32:39.869Z,13.47
2019-02-08T05:35:07.079Z,14.37
2019-02-08T05:37:33.937Z,16.30
2019-02-08T05:40:00.766Z,14.37
2019-02-08T05:42:27.647Z,13.57
2019-02-08T05:44:54.484Z,12.30
2019-02-08T05:47:21.353Z,15.43
2019-02-08T05:49:48.188Z,17.90
2019-02-08T05:52:15.059Z,11.83
2019-02-08T05:54:41.937Z,12.57
2019-02-08T05:57:08.811Z,15.10
2019-02-08T05:59:35.691Z,13.50
2019-02-08T06:02:02.537Z,17.43
2019-02-08T06:04:29.391Z,13.83
2019-02-08T06:06:56.219Z,11.40
2019-02-08T06:09:23.119Z,12.43
2019-02-08T06:11:49.955Z,8.87
2019-02-08T06:14:16.974Z,17.37
2019-02-08T06:16:43.803Z,10.03
2019-02-08T06:19:10.663Z,9.33
2019-02-08T06:21:37.554Z,10.57
2019-02-08T06:24:04.406Z,7.67
2019-02-08T06:26:31.250Z,8.83
2019-02-08T06:28:58.110Z,7.10
2019-02-08T06:31:24.943Z,9.40
2019-02-08T06:33:51.789Z,9.77
2019-02-08T06:36:18.637Z,14.13
2019-02-08T06:38:45.529Z,7.63
2019-02-08T06:41:12.380Z,9.53
2019-02-08T06:43:39.240Z,7.67
2019-02-08T06:46:06.102Z,12.53
2019-02-08T06:48:32.930Z,15.83
2019-02-08T06:50:59.788Z,16.77
2019-02-08T06:53:26.622Z,11.48
2019-02-08T06:55:54.060Z,14.97
2019-02-08T06:58:26.642Z,11.57
2019-02-08T07:01:15.282Z,12.93
2019-02-08T07:03:53.333Z,8.90
2019-02-08T07:06:40.559Z,11.63
2019-02-08T07:09:18.584Z,6.40
2019-02-08T07:11:51.150Z,11.80
2019-02-08T07:14:26.544Z,11.43
2019-02-08T07:17:05.078Z,13.37
2019-02-08T07:19:41.423Z,8.53
2019-02-08T07:22:16.390Z,13.10
2019-02-08T07:24:51.736Z,9.35
2019-02-08T07:27:29.737Z,8.67
2019-02-08T07:30:04.178Z,17.70
2019-02-08T07:32:36.826Z,17.87
2019-02-08T07:35:12.670Z,10.63
2019-02-08T07:38:05.102Z,9.90
2019-02-08T07:40:45.545Z,7.97
2019-02-08T07:43:30.286Z,6.97
2019-02-08T07:46:06.471Z,7.43
2019-02-08T07:48:45.875Z,10.20
2019-02-08T07:51:21.466Z,8.10
2019-02-08T07:54:09.797Z,8.60
2019-02-08T07:56:58.081Z,8.57
2019-02-08T07:59:33.165Z,9.83
2019-02-08T08:02:06.742Z,7.47
2019-02-08T08:04:41.834Z,6.43
2019-02-08T08:07:33.149Z,9.63
2019-02-08T08:10:12.666Z,6.20
2019-02-08T08:12:52.857Z,9.13
2019-02-08T08:15:40.229Z,9.40
2019-02-08T08:18:20.064Z,7.10
2019-02-08T08:21:03.269Z,8.83
2019-02-08T08:23:39.394Z,8.03
2019-02-08T08:26:14.077Z,7.50
2019-02-08T08:28:46.625Z,13.10
2019-02-08T08:31:18.313Z,10.60
2019-02-08T08:33:50.013Z,8.07
2019-02-08T08:36:23.846Z,10.20
2019-02-08T08:39:22.034Z,7.73
2019-02-08T08:42:01.066Z,14.80
2019-02-08T08:44:59.163Z,7.47
2019-02-08T08:47:39.266Z,9.07
2019-02-08T08:50:43.349Z,3.87
2019-02-08T08:53:40.762Z,8.60
2019-02-08T08:56:31.925Z,12.63
2019-02-08T08:59:11.917Z,11.00
2019-02-08T09:02:08.042Z,15.27
2019-02-08T09:05:05.110Z,6.53
2019-02-08T09:07:57.478Z,8.80
2019-02-08T09:10:36.805Z,8.43
2019-02-08T09:13:24.534Z,7.27
2019-02-08T09:16:09.134Z,8.10
2019-02-08T09:18:50.978Z,12.20
2019-02-08T09:21:45.661Z,4.80
2019-02-08T09:24:40.950Z,6.47
2019-02-08T09:27:23.477Z,10.73
2019-02-08T09:30:37.266Z,14.17
2019-02-08T09:33:33.302Z,13.10
2019-02-08T09:36:35.674Z,10.80
2019-02-08T09:39:14.010Z,9.80
2019-02-08T09:41:57.166Z,7.27
2019-02-08T09:44:42.298Z,5.70
2019-02-08T09:47:28.820Z,8.13
2019-02-08T09:50:09.369Z,8.03
2019-02-08T09:53:03.936Z,9.30
2019-02-08T09:55:42.319Z,10.13
2019-02-08T09:58:23.906Z,5.87
2019-02-08T10:01:33.910Z,4.30
2019-02-08T10:04:18.302Z,6.73
2019-02-08T10:07:09.542Z,7.58
2019-02-08T10:10:18.490Z,7.10
2019-02-08T10:13:10.623Z,5.57
2019-02-08T10:16:09.562Z,8.47
2019-02-08T10:19:15.261Z,9.43
2019-02-08T10:22:25.122Z,13.30
2019-02-08T10:25:10.329Z,6.70
2019-02-08T10:28:05.074Z,14.77
2019-02-08T10:31:08.594Z,9.07
2019-02-08T10:33:54.718Z,11.03
2019-02-08T10:37:06.597Z,7.20
2019-02-08T10:39:54.039Z,8.50
2019-02-08T10:42:53.333Z,6.87
2019-02-08T10:45:55.774Z,9.60
2019-02-08T10:48:41.291Z,6.90
2019-02-08T10:51:49.235Z,9.70
2019-02-08T10:54:46.089Z,9.33
2019-02-08T10:57:55.958Z,10.63
2019-02-08T11:00:50.181Z,6.37
2019-02-08T11:03:45.458Z,5.63
2019-02-08T11:06:36.158Z,4.57
2019-02-08T11:09:14.770Z,11.60
2019-02-08T11:12:11.218Z,3.30
2019-02-08T11:15:08.367Z,6.10
2019-02-08T11:18:03.190Z,6.53
2019-02-08T11:20:30.047Z,7.17
2019-02-08T11:22:56.886Z,5.23
2019-02-08T11:25:23.751Z,5.40
2019-02-08T11:27:50.583Z,9.58
2019-02-08T11:30:17.498Z,10.60
2019-02-08T11:32:44.344Z,6.63
2019-02-08T11:35:11.197Z,6.50
2019-02-08T11:37:38.041Z,9.20
2019-02-08T11:40:08.538Z,7.25
2019-02-08T11:42:35.371Z,6.30
2019-02-08T11:45:02.335Z,6.20
2019-02-08T11:47:29.207Z,13.13
2019-02-08T11:49:56.052Z,2.97
2019-02-08T11:52:22.890Z,5.30
2019-02-08T11:54:49.755Z,6.37
2019-02-08T11:57:16.581Z,3.20
2019-02-08T11:59:43.417Z,10.70
2019-02-08T12:02:10.262Z,2.47
2019-02-08T12:04:37.114Z,6.30
2019-02-08T12:07:04.088Z,7.10
2019-02-08T12:09:30.923Z,2.90
2019-02-08T12:11:57.745Z,4.00
2019-02-08T12:14:24.598Z,3.17
2019-02-08T12:16:51.441Z,3.17
2019-02-08T12:19:18.293Z,6.13
2019-02-08T12:21:45.154Z,3.10
2019-02-08T12:24:12.018Z,6.37
2019-02-08T12:26:38.846Z,4.30
2019-02-08T12:29:06.290Z,5.40
2019-02-08T12:31:33.122Z,2.63
2019-02-08T12:33:59.974Z,4.00
2019-02-08T12:36:26.864Z,4.83
2019-02-08T12:38:53.697Z,7.13
2019-02-08T12:41:20.590Z,6.23
2019-02-08T12:43:47.449Z,3.53
2019-02-08T12:46:14.298Z,4.03
2019-02-08T12:48:41.158Z,2.30
2019-02-08T12:51:07.978Z,2.83
2019-02-08T12:53:34.835Z,4.80
2019-02-08T12:56:01.641Z,7.50
2019-02-08T12:58:28.470Z,5.20
2019-02-08T13:00:55.311Z,3.60
2019-02-08T13:03:22.161Z,4.57
2019-02-08T13:05:49.002Z,3.90
2019-02-08T13:08:15.822Z,9.20
2019-02-08T13:10:42.737Z,5.03
2019-02-08T13:13:09.565Z,3.20
2019-02-08T13:15:36.406Z,3.93
2019-02-08T13:18:03.274Z,4.20
2019-02-08T13:20:30.113Z,6.17
2019-02-08T13:22:57.041Z,4.00
2019-02-08T13:25:23.889Z,5.27
2019-02-08T13:27:50.726Z,3.90
2019-02-08T13:30:20.578Z,5.80
2019-02-08T13:32:47.437Z,4.43
2019-02-08T13:35:14.318Z,6.58
2019-02-08T13:37:41.153Z,4.40
2019-02-08T13:40:09.446Z,5.80
2019-02-08T13:42:36.265Z,7.00
2019-02-08T13:45:03.496Z,4.70
2019-02-08T13:47:30.344Z,5.63
2019-02-08T13:49:57.275Z,6.90
2019-02-08T13:52:24.122Z,7.62
2019-02-08T13:54:50.988Z,6.33
2019-02-08T13:57:17.867Z,4.17
2019-02-08T13:59:44.686Z,4.47
2019-02-08T14:02:11.510Z,4.60
2019-02-08T14:04:39.462Z,4.20
2019-02-08T14:07:06.314Z,10.37
2019-02-08T14:09:33.157Z,4.47
2019-02-08T14:12:00.014Z,11.43
2019-02-08T14:14:26.884Z,24.73
2019-02-08T14:16:53.806Z,7.97
2019-02-08T14:19:20.706Z,4.23
2019-02-08T14:21:47.601Z,4.63
2019-02-08T14:24:14.458Z,9.47
2019-02-08T14:26:41.298Z,7.20
2019-02-08T14:29:08.260Z,5.83
2019-02-08T14:31:35.076Z,8.20
2019-02-08T14:34:02.059Z,5.07
2019-02-08T14:36:29.009Z,9.93
2019-02-08T14:38:55.891Z,5.00
2019-02-08T14:41:22.719Z,7.90
2019-02-08T14:43:49.583Z,5.93
2019-02-08T14:46:16.427Z,5.93
2019-02-08T14:48:43.361Z,3.47
2019-02-08T14:51:10.196Z,7.73
2019-02-08T14:53:37.089Z,4.80
2019-02-08T14:56:03.966Z,3.83
2019-02-08T14:58:30.802Z,4.63
2019-02-08T15:00:57.694Z,6.23
2019-02-08T15:03:24.525Z,8.83
2019-02-08T15:05:51.388Z,4.13
2019-02-08T15:08:18.271Z,5.20
2019-02-08T15:10:46.394Z,2.27
2019-02-08T15:13:13.366Z,4.17
2019-02-08T15:15:40.208Z,4.77
2019-02-08T15:18:07.066Z,3.60
2019-02-08T15:20:33.894Z,10.17
2019-02-08T15:23:00.769Z,8.90
2019-02-08T15:25:27.590Z,3.87
2019-02-08T15:27:54.432Z,2.90
2019-02-08T15:30:22.774Z,6.67
2019-02-08T15:32:49.690Z,2.23
2019-02-08T15:35:17.662Z,6.80
2019-02-08T15:37:44.526Z,3.30
2019-02-08T15:40:14.666Z,4.03
2019-02-08T15:42:41.602Z,7.03
2019-02-08T15:45:11.874Z,5.13
2019-02-08T15:47:38.698Z,4.03
2019-02-08T15:50:05.711Z,5.23
2019-02-08T15:52:32.560Z,1.90
2019-02-08T15:54:59.426Z,6.53
2019-02-08T15:57:31.936Z,6.20
2019-02-08T15:59:53.182Z,6.62
2019-02-08T16:02:20.006Z,5.73
2019-02-08T16:04:46.882Z,6.57
2019-02-08T16:07:14.121Z,6.90
2019-02-08T16:09:40.967Z,6.53
2019-02-08T16:12:07.815Z,7.43
2019-02-08T16:14:34.682Z,6.87
2019-02-08T16:17:01.530Z,6.83
2019-02-08T16:19:28.390Z,7.03
2019-02-08T16:21:55.221Z,7.10
2019-02-08T16:24:22.074Z,8.90
2019-02-08T16:26:48.894Z,5.40
2019-02-08T16:29:15.735Z,6.13
2019-02-08T16:31:42.574Z,8.60
2019-02-08T16:34:09.444Z,8.83
2019-02-08T16:36:36.282Z,8.73
2019-02-08T16:39:06.599Z,5.80
2019-02-08T16:41:33.435Z,5.33
2019-02-08T16:44:00.367Z,6.73
2019-02-08T16:46:27.307Z,7.17
2019-02-08T16:48:54.158Z,10.23
2019-02-08T16:51:21.001Z,7.57
2019-02-08T16:53:53.305Z,5.90
2019-02-08T16:56:14.702Z,6.10
2019-02-08T16:58:41.531Z,6.65
2019-02-08T17:01:08.457Z,4.00
2019-02-08T17:03:35.295Z,3.93
2019-02-08T17:06:02.240Z,6.47
2019-02-08T17:08:29.100Z,6.00
2019-02-08T17:10:55.949Z,8.23
2019-02-08T17:13:22.773Z,5.33
2019-02-08T17:15:49.646Z,5.33
2019-02-08T17:18:16.487Z,7.00
2019-02-08T17:20:44.582Z,5.23
2019-02-08T17:23:11.414Z,6.95
2019-02-08T17:25:38.283Z,9.40
2019-02-08T17:28:05.749Z,6.00
2019-02-08T17:30:32.610Z,8.50
2019-02-08T17:32:59.442Z,8.07
2019-02-08T17:35:26.406Z,5.43
2019-02-08T17:37:53.237Z,6.03
2019-02-08T17:40:21.917Z,10.87
2019-02-08T17:42:48.755Z,9.30
2019-02-08T17:45:16.642Z,5.77
2019-02-08T17:47:43.461Z,5.90
2019-02-08T17:50:12.275Z,4.87
2019-02-08T17:52:39.099Z,4.33
2019-02-08T17:55:06.958Z,6.67
2019-02-08T17:57:33.814Z,7.13
2019-02-08T18:00:00.664Z,4.03
2019-02-08T18:02:27.489Z,2.90
2019-02-08T18:04:54.343Z,3.77
2019-02-08T18:07:21.195Z,6.60
2019-02-08T18:09:48.071Z,6.50
2019-02-08T18:12:14.910Z,6.07
2019-02-08T18:14:41.758Z,6.60
2019-02-08T18:17:10.698Z,5.90
2019-02-08T18:19:37.001Z,3.87
2019-02-08T18:22:03.687Z,11.30
2019-02-08T18:24:30.534Z,11.70
2019-02-08T18:26:57.410Z,8.23
2019-02-08T18:29:24.246Z,6.50
2019-02-08T18:31:51.114Z,8.30
2019-02-08T18:34:17.974Z,9.83
2019-02-08T18:36:44.829Z,5.33
2019-02-08T18:39:11.731Z,8.43
2019-02-08T18:41:38.592Z,6.97
2019-02-08T18:44:05.430Z,4.07
2019-02-08T18:46:32.287Z,3.73
2019-02-08T18:48:59.142Z,6.90
2019-02-08T18:51:26.015Z,5.43
2019-02-08T18:53:52.846Z,6.97
2019-02-08T18:56:19.702Z,5.30
2019-02-08T18:58:46.551Z,5.30
2019-02-08T19:01:13.411Z,4.57
2019-02-08T19:03:40.253Z,4.63
2019-02-08T19:06:07.126Z,5.92
2019-02-08T19:08:33.965Z,5.60
2019-02-08T19:11:00.822Z,9.17
2019-02-08T19:13:27.669Z,8.27
2019-02-08T19:15:54.538Z,8.80
2019-02-08T19:18:21.390Z,17.40
2019-02-08T19:20:48.342Z,11.10
2019-02-08T19:23:15.181Z,10.53
2019-02-08T19:25:42.318Z,18.13
2019-02-08T19:28:10.729Z,12.50
2019-02-08T19:30:38.132Z,7.40
2019-02-08T19:33:05.390Z,6.77
2019-02-08T19:35:32.230Z,11.97
2019-02-08T19:37:59.152Z,7.93
2019-02-08T19:40:28.233Z,7.37
2019-02-08T19:42:55.272Z,5.30
2019-02-08T19:45:22.206Z,8.25
2019-02-08T19:47:49.478Z,6.43
2019-02-08T19:50:21.496Z,7.03
2019-02-08T19:52:48.580Z,6.00
2019-02-08T19:55:15.518Z,5.87
2019-02-08T19:57:42.646Z,5.90
2019-02-08T20:00:12.178Z,5.60
2019-02-08T20:02:39.151Z,5.20
2019-02-08T20:05:10.270Z,7.53
2019-02-08T20:07:37.388Z,8.67
2019-02-08T20:10:06.766Z,9.90
2019-02-08T20:12:33.770Z,8.97
2019-02-08T20:15:00.834Z,7.97
2019-02-08T20:17:27.713Z,8.40
2019-02-08T20:19:54.767Z,5.53
2019-02-08T20:22:21.815Z,11.78
2019-02-08T20:24:48.870Z,8.50
2019-02-08T20:27:15.933Z,8.73
2019-02-08T20:29:42.854Z,8.55
2019-02-08T20:32:09.873Z,4.97
2019-02-08T20:34:36.906Z,6.33
2019-02-08T20:37:04.132Z,10.37
2019-02-08T20:39:31.017Z,8.97
2019-02-08T20:41:58.045Z,8.73
2019-02-08T20:44:25.068Z,11.27
2019-02-08T20:46:52.204Z,7.80
2019-02-08T20:49:19.115Z,6.80
2019-02-08T20:51:46.275Z,14.30
2019-02-08T20:54:13.342Z,9.63
2019-02-08T20:56:40.296Z,9.93
2019-02-08T20:59:07.251Z,9.70
2019-02-08T21:01:34.074Z,5.90
2019-02-08T21:04:01.249Z,4.70
2019-02-08T21:06:28.110Z,10.40
2019-02-08T21:08:54.991Z,14.07
2019-02-08T21:11:22.134Z,7.80
2019-02-08T21:13:49.044Z,11.53
2019-02-08T21:16:15.940Z,9.03
2019-02-08T21:18:42.818Z,12.37
2019-02-08T21:21:09.761Z,10.27
2019-02-08T21:23:36.651Z,12.83
2019-02-08T21:26:03.562Z,9.13
2019-02-08T21:28:30.445Z,11.13
2019-02-08T21:30:57.273Z,10.73
2019-02-08T21:33:24.224Z,13.43
2019-02-08T21:35:51.055Z,22.62
2019-02-08T21:38:17.930Z,29.70
2019-02-08T21:40:44.776Z,21.47
2019-02-08T21:43:11.642Z,40.43
2019-02-08T21:45:39.969Z,35.93
2019-02-08T21:48:07.962Z,21.97
2019-02-08T21:50:34.782Z,11.60
2019-02-08T21:53:01.642Z,9.15
2019-02-08T21:55:28.544Z,6.20
2019-02-08T21:57:55.507Z,7.00
2019-02-08T22:00:25.019Z,8.30
2019-02-08T22:02:51.873Z,9.00
2019-02-08T22:05:25.266Z,10.43
2019-02-08T22:07:52.118Z,8.70
2019-02-08T22:10:18.954Z,4.80
2019-02-08T22:12:45.825Z,9.33
2019-02-08T22:15:15.552Z,6.77
2019-02-08T22:17:42.424Z,8.10
2019-02-08T22:20:12.466Z,10.80
2019-02-08T22:22:39.314Z,8.65
2019-02-08T22:25:06.755Z,7.33
2019-02-08T22:27:33.610Z,7.83
2019-02-08T22:30:00.439Z,11.18
2019-02-08T22:32:27.296Z,8.08
2019-02-08T22:34:54.134Z,9.60
2019-02-08T22:37:21.013Z,6.60
2019-02-08T22:39:47.877Z,7.80
2019-02-08T22:42:14.818Z,5.63
2019-02-08T22:44:41.686Z,8.63
2019-02-08T22:47:08.528Z,12.63
2019-02-08T22:49:35.405Z,8.10
2019-02-08T22:52:02.241Z,7.20
2019-02-08T22:54:29.098Z,8.33
2019-02-08T22:56:55.937Z,6.30
2019-02-08T22:59:23.786Z,8.37
2019-02-08T23:01:50.618Z,4.93
2019-02-08T23:04:17.474Z,5.80
2019-02-08T23:06:45.206Z,5.13
2019-02-08T23:09:18.657Z,6.63
2019-02-08T23:11:45.506Z,5.55
2019-02-08T23:14:12.358Z,6.20
2019-02-08T23:16:39.197Z,5.40
2019-02-08T23:19:06.062Z,3.90
2019-02-08T23:21:32.913Z,6.77
2019-02-08T23:23:59.858Z,5.60
2019-02-08T23:26:26.709Z,5.20
2019-02-08T23:28:53.574Z,3.20
2019-02-08T23:31:20.416Z,3.40
2019-02-08T23:33:47.271Z,5.03
2019-02-08T23:36:14.121Z,3.10
2019-02-08T23:38:40.970Z,5.20
2019-02-08T23:41:07.818Z,3.10
2019-02-08T23:43:34.674Z,2.53
2019-02-08T23:46:01.760Z,5.03
2019-02-08T23:48:28.618Z,6.13
2019-02-08T23:50:55.466Z,5.27
2019-02-08T23:53:22.296Z,6.40
2019-02-08T23:55:49.165Z,6.63
2019-02-08T23:58:16.022Z,3.63
